createdAt,value
2022-10-29T00:02:40.377Z,21.50
2022-10-29T00:05:43.315Z,15.70
2022-10-29T00:08:46.254Z,19.10
2022-10-29T00:11:49.097Z,21.10
2022-10-29T00:14:51.924Z,18.70
2022-10-29T00:17:55.150Z,18.10
2022-10-29T00:21:03.273Z,16.50
2022-10-29T00:24:06.655Z,17.50
2022-10-29T00:27:09.603Z,22.60
2022-10-29T00:30:13.149Z,20.50
2022-10-29T00:36:29.142Z,17.90
2022-10-29T00:39:33.563Z,21.10
2022-10-29T00:42:36.522Z,21.00
2022-10-29T00:45:45.359Z,17.90
2022-10-29T00:48:51.700Z,19.10
2022-10-29T00:51:55.177Z,20.30
2022-10-29T00:55:02.794Z,17.70
2022-10-29T00:58:05.722Z,19.50
2022-10-29T01:01:08.786Z,18.90
2022-10-29T01:04:12.066Z,20.60
2022-10-29T01:07:15.093Z,19.20
2022-10-29T01:10:23.587Z,20.20
2022-10-29T01:13:50.935Z,23.00
2022-10-29T01:16:59.662Z,18.60
2022-10-29T01:20:11.702Z,21.50
2022-10-29T01:23:39.111Z,19.00
2022-10-29T01:27:23.758Z,18.50
2022-10-29T01:30:47.870Z,19.60
2022-10-29T01:34:11.792Z,22.10
2022-10-29T01:37:31.562Z,19.40
2022-10-29T01:40:45.553Z,20.50
2022-10-29T01:43:55.848Z,20.70
2022-10-29T01:47:02.706Z,21.00
2022-10-29T01:50:09.893Z,21.00
2022-10-29T01:53:13.427Z,20.70
2022-10-29T01:56:16.494Z,18.90
2022-10-29T01:59:35.221Z,20.40
2022-10-29T02:02:58.216Z,19.20
2022-10-29T02:06:09.848Z,22.20
2022-10-29T02:09:27.795Z,21.40
2022-10-29T02:12:40.262Z,19.90
2022-10-29T02:15:48.379Z,23.00
2022-10-29T02:18:51.611Z,24.60
2022-10-29T02:21:54.532Z,22.00
2022-10-29T02:24:57.406Z,23.10
2022-10-29T02:28:00.372Z,20.70
2022-10-29T02:31:03.560Z,21.30
2022-10-29T02:34:06.440Z,20.70
2022-10-29T02:37:09.344Z,21.40
2022-10-29T02:40:12.802Z,20.00
2022-10-29T02:43:15.721Z,20.80
2022-10-29T02:46:21.114Z,20.90
2022-10-29T02:49:24.072Z,19.30
2022-10-29T02:52:26.941Z,20.60
2022-10-29T02:55:29.845Z,19.40
2022-10-29T02:58:33.010Z,17.40
2022-10-29T03:01:35.933Z,24.10
2022-10-29T03:04:39.550Z,21.30
2022-10-29T03:07:42.412Z,20.50
2022-10-29T03:10:45.370Z,20.30
2022-10-29T03:13:48.389Z,23.50
2022-10-29T03:16:51.303Z,25.00
2022-10-29T03:19:54.337Z,21.70
2022-10-29T03:22:57.223Z,21.20
2022-10-29T03:26:00.106Z,23.40
2022-10-29T03:29:03.139Z,22.00
2022-10-29T03:32:06.100Z,24.00
2022-10-29T03:35:10.700Z,23.50
2022-10-29T03:38:13.596Z,24.60
2022-10-29T03:41:16.442Z,22.30
2022-10-29T03:44:19.281Z,23.60
2022-10-29T03:47:22.189Z,22.20
2022-10-29T03:50:25.040Z,22.60
2022-10-29T03:53:29.126Z,25.00
2022-10-29T03:56:32.017Z,21.60
2022-10-29T03:59:34.947Z,22.20
2022-10-29T04:02:37.907Z,22.40
2022-10-29T04:05:40.857Z,22.30
2022-10-29T04:08:43.920Z,22.70
2022-10-29T04:11:46.816Z,22.10
2022-10-29T04:17:57.579Z,23.00
2022-10-29T04:31:12.350Z,27.00
2022-10-29T04:34:15.300Z,28.70
2022-10-29T04:37:18.178Z,26.60
2022-10-29T04:40:23.520Z,25.00
2022-10-29T04:43:27.441Z,25.40
2022-10-29T04:46:30.321Z,26.20
2022-10-29T04:49:33.291Z,24.20
2022-10-29T04:52:36.184Z,25.00
2022-10-29T04:55:39.580Z,26.30
2022-10-29T04:58:42.444Z,25.60
2022-10-29T05:01:45.357Z,24.90
2022-10-29T05:04:48.207Z,27.50
2022-10-29T05:08:00.106Z,27.40
2022-10-29T05:11:06.997Z,25.40
2022-10-29T05:14:09.897Z,23.70
2022-10-29T05:17:12.809Z,23.70
2022-10-29T05:20:15.688Z,26.00
2022-10-29T05:23:18.584Z,28.50
2022-10-29T05:26:21.499Z,22.20
2022-10-29T05:29:24.381Z,22.90
2022-10-29T05:32:30.524Z,20.50
2022-10-29T05:35:34.010Z,20.40
2022-10-29T05:38:36.887Z,18.70
2022-10-29T05:41:39.792Z,18.70
2022-10-29T05:44:42.646Z,19.60
2022-10-29T05:47:45.535Z,18.90
2022-10-29T05:50:48.456Z,20.20
2022-10-29T05:53:51.518Z,17.30
2022-10-29T05:56:54.434Z,17.00
2022-10-29T05:59:57.317Z,18.40
2022-10-29T06:03:00.919Z,19.20
2022-10-29T06:06:04.284Z,17.70
2022-10-29T06:09:07.346Z,16.70
2022-10-29T06:12:10.298Z,16.70
2022-10-29T06:15:13.237Z,19.00
2022-10-29T06:18:16.582Z,15.60
2022-10-29T06:21:20.230Z,15.60
2022-10-29T06:24:23.261Z,16.00
2022-10-29T06:27:26.602Z,14.00
2022-10-29T06:30:30.899Z,13.00
2022-10-29T06:33:36.357Z,13.90
2022-10-29T06:36:39.304Z,12.30
2022-10-29T06:39:42.170Z,16.70
2022-10-29T06:42:45.120Z,11.70
2022-10-29T06:45:49.793Z,13.70
2022-10-29T06:48:52.671Z,14.70
2022-10-29T06:51:55.540Z,13.90
2022-10-29T06:54:58.380Z,14.50
2022-10-29T06:58:03.935Z,14.20
2022-10-29T07:01:06.912Z,11.10
2022-10-29T07:04:09.827Z,24.00
2022-10-29T07:07:12.828Z,14.60
2022-10-29T07:10:15.878Z,13.60
2022-10-29T07:13:18.771Z,13.80
2022-10-29T07:16:21.682Z,12.50
2022-10-29T07:19:24.571Z,12.90
2022-10-29T07:22:32.447Z,12.40
2022-10-29T07:25:39.001Z,10.80
2022-10-29T07:28:42.524Z,11.40
2022-10-29T07:31:45.676Z,14.30
2022-10-29T07:34:48.536Z,15.60
2022-10-29T07:37:51.437Z,10.10
2022-10-29T07:40:54.586Z,11.70
2022-10-29T07:43:57.443Z,9.30
2022-10-29T07:47:02.178Z,9.70
2022-10-29T07:50:05.389Z,9.40
2022-10-29T07:53:08.540Z,11.30
2022-10-29T07:56:11.693Z,11.20
2022-10-29T07:59:15.899Z,10.20
2022-10-29T08:02:18.779Z,8.30
2022-10-29T08:05:22.472Z,8.80
2022-10-29T08:08:25.703Z,9.80
2022-10-29T08:11:28.611Z,13.20
2022-10-29T08:14:31.462Z,10.40
2022-10-29T08:17:34.312Z,9.40
2022-10-29T08:20:37.187Z,9.10
2022-10-29T08:23:39.965Z,9.70
2022-10-29T08:26:42.847Z,6.80
2022-10-29T08:29:45.641Z,8.80
2022-10-29T08:32:48.599Z,10.20
2022-10-29T08:35:52.735Z,7.90
2022-10-29T08:38:55.584Z,12.60
2022-10-29T08:42:17.071Z,9.70
2022-10-29T08:45:30.298Z,8.40
2022-10-29T08:48:36.921Z,7.50
2022-10-29T08:51:44.406Z,7.40
2022-10-29T08:55:10.155Z,7.50
2022-10-29T08:58:27.868Z,5.50
2022-10-29T09:01:31.160Z,6.90
2022-10-29T09:04:36.620Z,6.10
2022-10-29T09:07:57.127Z,8.90
2022-10-29T09:11:33.808Z,8.50
2022-10-29T09:18:02.072Z,6.40
2022-10-29T09:21:18.579Z,5.40
2022-10-29T09:24:38.769Z,9.60
2022-10-29T09:28:02.980Z,6.50
2022-10-29T09:31:34.683Z,9.00
2022-10-29T09:34:50.903Z,8.80
2022-10-29T09:37:59.115Z,7.00
2022-10-29T09:41:03.978Z,8.50
2022-10-29T09:44:25.134Z,8.20
2022-10-29T09:47:51.713Z,11.40
2022-10-29T09:51:06.067Z,7.70
2022-10-29T09:54:09.404Z,6.60
2022-10-29T09:57:20.464Z,5.50
2022-10-29T10:00:26.457Z,7.10
2022-10-29T10:03:35.369Z,9.60
2022-10-29T10:07:11.623Z,8.10
2022-10-29T10:10:22.769Z,6.10
2022-10-29T10:13:29.638Z,8.60
2022-10-29T10:16:33.476Z,8.20
2022-10-29T10:19:44.479Z,10.20
2022-10-29T10:22:47.575Z,7.70
2022-10-29T10:25:53.378Z,7.80
2022-10-29T10:29:17.520Z,7.70
2022-10-29T10:32:25.707Z,9.10
2022-10-29T10:35:32.201Z,11.70
2022-10-29T10:38:42.050Z,8.30
2022-10-29T10:41:45.810Z,11.10
2022-10-29T10:45:15.104Z,6.60
2022-10-29T10:48:18.199Z,7.80
2022-10-29T10:51:28.933Z,6.60
2022-10-29T10:54:55.286Z,7.50
2022-10-29T10:58:03.863Z,8.40
2022-10-29T11:01:22.538Z,6.00
2022-10-29T11:04:31.203Z,9.30
2022-10-29T11:07:36.860Z,9.90
2022-10-29T11:10:46.186Z,7.00
2022-10-29T11:13:50.551Z,8.80
2022-10-29T11:16:59.220Z,9.80
2022-10-29T11:20:08.532Z,7.20
2022-10-29T11:23:17.043Z,9.90
2022-10-29T11:26:29.654Z,9.10
2022-10-29T11:29:48.963Z,6.10
2022-10-29T11:36:30.133Z,9.90
2022-10-29T11:39:49.011Z,7.80
2022-10-29T11:42:51.924Z,7.60
2022-10-29T11:46:04.045Z,10.80
2022-10-29T11:50:01.452Z,7.40
2022-10-29T11:53:15.172Z,6.10
2022-10-29T11:56:41.133Z,10.90
2022-10-29T11:59:58.462Z,9.10
2022-10-29T12:03:14.424Z,8.70
2022-10-29T12:06:26.471Z,6.60
2022-10-29T12:09:47.851Z,6.10
2022-10-29T12:13:04.635Z,9.40
2022-10-29T12:17:02.960Z,6.00
2022-10-29T12:20:29.502Z,5.10
2022-10-29T12:23:50.465Z,8.10
2022-10-29T12:27:09.277Z,6.70
2022-10-29T12:30:16.885Z,6.90
2022-10-29T12:33:28.755Z,6.80
2022-10-29T12:36:48.969Z,9.60
2022-10-29T12:40:00.187Z,7.10
2022-10-29T12:43:07.391Z,8.30
2022-10-29T12:47:03.119Z,7.70
2022-10-29T12:50:34.209Z,8.00
2022-10-29T12:54:09.079Z,8.00
2022-10-29T12:57:14.726Z,9.10
2022-10-29T13:00:23.545Z,6.30
2022-10-29T13:04:02.713Z,9.50
2022-10-29T13:07:23.363Z,7.70
2022-10-29T13:10:36.299Z,8.40
2022-10-29T13:13:50.413Z,5.80
2022-10-29T13:16:54.822Z,6.60
2022-10-29T13:20:00.885Z,6.40
2022-10-29T13:23:23.955Z,7.30
2022-10-29T13:27:00.039Z,9.10
2022-10-29T13:30:18.199Z,9.80
2022-10-29T13:33:23.968Z,9.00
2022-10-29T13:36:29.348Z,9.50
2022-10-29T13:39:32.200Z,7.50
2022-10-29T13:42:35.163Z,9.40
2022-10-29T13:45:41.598Z,9.60
2022-10-29T13:48:46.206Z,9.00
2022-10-29T13:51:57.305Z,10.70
2022-10-29T13:55:05.417Z,11.70
2022-10-29T13:58:13.063Z,9.30
2022-10-29T14:01:19.151Z,9.10
2022-10-29T14:04:31.572Z,8.00
2022-10-29T14:07:46.267Z,10.40
2022-10-29T14:10:53.655Z,8.70
2022-10-29T14:14:00.658Z,8.50
2022-10-29T14:17:18.888Z,9.40
2022-10-29T14:20:28.921Z,13.40
2022-10-29T14:23:33.130Z,10.00
2022-10-29T14:26:41.831Z,8.60
2022-10-29T14:29:44.846Z,9.80
2022-10-29T14:32:47.797Z,13.10
2022-10-29T14:35:53.115Z,13.60
2022-10-29T14:39:04.731Z,11.60
2022-10-29T14:45:28.812Z,14.80
2022-10-29T14:48:31.925Z,15.60
2022-10-29T14:51:40.830Z,17.50
2022-10-29T14:54:48.713Z,13.70
2022-10-29T14:58:06.850Z,12.00
2022-10-29T15:01:15.709Z,14.60
2022-10-29T15:04:21.754Z,17.50
2022-10-29T15:07:29.509Z,13.30
2022-10-29T15:10:32.908Z,16.00
2022-10-29T15:13:37.325Z,12.80
2022-10-29T15:16:42.411Z,11.70
2022-10-29T15:19:46.679Z,15.00
2022-10-29T15:22:54.926Z,18.90
2022-10-29T15:26:02.341Z,16.50
2022-10-29T15:29:10.703Z,17.20
2022-10-29T15:32:16.449Z,16.50
2022-10-29T15:35:21.344Z,19.00
2022-10-29T15:38:30.074Z,15.70
2022-10-29T15:41:47.354Z,21.40
2022-10-29T15:45:08.466Z,18.90
2022-10-29T15:48:12.242Z,26.90
2022-10-29T15:51:15.717Z,30.10
2022-10-29T15:54:18.681Z,18.60
2022-10-29T15:57:21.825Z,21.10
2022-10-29T16:00:24.880Z,28.60
2022-10-29T16:03:28.206Z,28.80
2022-10-29T16:06:31.845Z,22.20
2022-10-29T16:09:34.829Z,27.30
2022-10-29T16:12:37.646Z,28.30
2022-10-29T16:15:43.311Z,27.30
2022-10-29T16:18:49.762Z,29.90
2022-10-29T16:21:56.685Z,27.30
2022-10-29T16:25:01.131Z,25.80
2022-10-29T16:28:04.368Z,27.20
2022-10-29T16:31:24.706Z,28.50
2022-10-29T16:34:27.574Z,26.90
2022-10-29T16:37:30.401Z,26.60
2022-10-29T16:40:33.280Z,26.60
2022-10-29T16:43:36.153Z,27.60
2022-10-29T16:46:39.034Z,25.00
2022-10-29T16:49:41.902Z,25.50
2022-10-29T16:52:44.980Z,22.60
2022-10-29T16:55:47.908Z,25.80
2022-10-29T16:58:50.779Z,27.20
2022-10-29T17:01:53.700Z,26.60
2022-10-29T17:04:56.640Z,29.20
2022-10-29T17:07:59.517Z,25.10
2022-10-29T17:11:05.902Z,27.10
2022-10-29T17:14:09.220Z,22.40
2022-10-29T17:17:12.092Z,23.30
2022-10-29T17:20:15.309Z,23.50
2022-10-29T17:23:18.199Z,25.80
2022-10-29T17:26:21.151Z,26.60
2022-10-29T17:29:24.116Z,23.70
2022-10-29T17:32:32.710Z,29.50
2022-10-29T17:35:35.614Z,27.70
2022-10-29T17:38:38.550Z,28.60
2022-10-29T17:41:41.518Z,26.00
2022-10-29T17:44:44.585Z,28.60
2022-10-29T17:47:47.419Z,27.30
2022-10-29T17:50:57.377Z,28.40
2022-10-29T17:54:01.985Z,28.60
2022-10-29T17:57:05.900Z,29.90
2022-10-29T18:00:09.373Z,30.50
2022-10-29T18:03:12.357Z,28.60
2022-10-29T18:06:15.791Z,29.00
2022-10-29T18:09:21.128Z,27.70
2022-10-29T18:12:24.294Z,29.90
2022-10-29T18:15:27.830Z,29.20
2022-10-29T18:18:47.974Z,27.40
2022-10-29T18:21:57.873Z,33.00
2022-10-29T18:25:00.970Z,32.10
2022-10-29T18:28:03.926Z,32.50
2022-10-29T18:31:06.883Z,31.10
2022-10-29T18:34:09.675Z,29.40
2022-10-29T18:37:12.586Z,30.50
2022-10-29T18:40:15.475Z,30.90
2022-10-29T18:43:18.385Z,31.20
2022-10-29T18:46:21.889Z,27.70
2022-10-29T18:49:25.520Z,29.00
2022-10-29T18:52:28.634Z,32.00
2022-10-29T18:55:31.596Z,30.30
2022-10-29T18:58:34.426Z,33.80
2022-10-29T19:01:37.845Z,33.80
2022-10-29T19:04:40.813Z,34.80
2022-10-29T19:07:44.176Z,34.80
2022-10-29T19:10:47.099Z,33.80
2022-10-29T19:13:53.448Z,37.50
2022-10-29T19:16:56.867Z,38.80
2022-10-29T19:20:00.627Z,40.60
2022-10-29T19:23:04.442Z,43.30
2022-10-29T19:26:10.632Z,45.10
2022-10-29T19:29:15.137Z,40.60
2022-10-29T19:32:18.496Z,42.50
2022-10-29T19:35:21.711Z,41.50
2022-10-29T19:38:25.549Z,38.40
2022-10-29T19:41:29.573Z,40.80
2022-10-29T19:44:32.806Z,43.00
2022-10-29T19:47:45.480Z,41.20
2022-10-29T19:50:56.496Z,41.60
2022-10-29T19:54:05.294Z,38.60
2022-10-29T19:57:09.244Z,40.20
2022-10-29T20:00:16.722Z,41.00
2022-10-29T20:03:21.856Z,38.70
2022-10-29T20:06:28.727Z,39.70
2022-10-29T20:09:33.890Z,40.10
2022-10-29T20:12:36.760Z,41.70
2022-10-29T20:15:40.220Z,42.20
2022-10-29T20:18:46.673Z,43.40
2022-10-29T20:21:49.582Z,39.40
2022-10-29T20:24:52.472Z,34.90
2022-10-29T20:27:55.563Z,38.20
2022-10-29T20:31:12.522Z,38.50
2022-10-29T20:34:15.699Z,41.40
2022-10-29T20:37:20.482Z,42.10
2022-10-29T20:40:23.898Z,42.40
2022-10-29T20:43:28.519Z,44.80
2022-10-29T20:46:31.907Z,46.90
2022-10-29T20:49:34.781Z,42.40
2022-10-29T20:52:37.561Z,41.30
2022-10-29T20:55:40.931Z,42.50
2022-10-29T20:58:46.492Z,43.20
2022-10-29T21:01:52.973Z,37.50
2022-10-29T21:05:00.039Z,34.50
2022-10-29T21:08:04.715Z,41.30
2022-10-29T21:14:29.898Z,36.80
2022-10-29T21:17:36.304Z,41.10
2022-10-29T21:20:41.880Z,38.10
2022-10-29T21:23:45.298Z,34.80
2022-10-29T21:26:49.717Z,37.50
2022-10-29T21:29:59.302Z,40.90
2022-10-29T21:33:02.340Z,37.90
2022-10-29T21:36:05.745Z,36.40
2022-10-29T21:39:09.467Z,34.10
2022-10-29T21:42:12.485Z,35.80
2022-10-29T21:45:15.999Z,35.80
2022-10-29T21:48:19.730Z,34.90
2022-10-29T21:51:22.610Z,33.90
2022-10-29T21:54:28.264Z,30.90
2022-10-29T21:57:31.531Z,33.30
2022-10-29T22:00:34.459Z,32.00
2022-10-29T22:03:41.363Z,33.80
2022-10-29T22:06:44.314Z,36.20
2022-10-29T22:09:47.157Z,33.80
2022-10-29T22:12:50.046Z,32.50
2022-10-29T22:15:52.908Z,32.70
2022-10-29T22:18:55.718Z,36.40
2022-10-29T22:21:58.543Z,32.40
2022-10-29T22:25:01.426Z,33.80
2022-10-29T22:28:04.594Z,28.50
2022-10-29T22:31:07.922Z,31.10
2022-10-29T22:34:10.847Z,31.50
2022-10-29T22:37:13.694Z,29.60
2022-10-29T22:40:16.519Z,31.50
2022-10-29T22:43:19.344Z,31.70
2022-10-29T22:46:22.498Z,30.80
2022-10-29T22:49:25.317Z,30.60
2022-10-29T22:52:28.200Z,33.70
2022-10-29T22:55:31.107Z,32.30
2022-10-29T22:58:34.043Z,31.20
2022-10-29T23:01:42.082Z,29.00
2022-10-29T23:04:48.075Z,29.50
2022-10-29T23:07:50.908Z,31.60
2022-10-29T23:10:53.815Z,30.40
2022-10-29T23:14:01.462Z,29.60
2022-10-29T23:17:05.195Z,30.30
2022-10-29T23:20:08.114Z,32.80
2022-10-29T23:23:11.235Z,34.40
2022-10-29T23:26:15.300Z,35.80
2022-10-29T23:29:18.187Z,34.20
2022-10-29T23:32:21.009Z,28.60
2022-10-29T23:35:23.857Z,34.80
2022-10-29T23:38:26.684Z,31.70
2022-10-29T23:41:30.922Z,27.60
2022-10-29T23:44:33.791Z,32.20
2022-10-29T23:47:36.671Z,33.40
2022-10-29T23:50:40.500Z,35.80
2022-10-29T23:53:43.380Z,34.10
2022-10-29T23:56:46.212Z,35.10
2022-10-29T23:59:49.110Z,34.50
